Arock, Oregon
Current Conditions -  °F | °C
As of 12:15 AM on Saturday 20 Dec 2014 (Local Time) from KEUL Reporting Station
Clear Clear  
Wind Chill: 28°   Ceiling: Unl
Heat Index: 36°   Visibility: 10mi
Dew Point: 28°   Wind: 12mph
Humidity: 75%   Direction: 70°ENE
Pressure: 30.09"   Gusts: NA
Location:  42.91°N, 117.53°W
Report Text: KEUL 200715Z AUTO 07010KT 10SM CLR 02/M02 A3009 RMK AO1
Loading
Personal Weather Stations






























Interactive Weather Map New forecast layout! Learn more

10-Day Weather Forecast

Advertisements
Track Severe Weather on mobile